Time;durP1;ratioP1;P1;durP2;ratioP2;P2;SDS_P1;SDS_P2;PMS_P1;PMS_P2;Temp;Humidity;BMP_temperature;BMP_pressure;BME280_temperature;BME280_humidity;BME280_pressure;Samples;Min_cycle;Max_cycle;Signal;HPM_P1;HPM_P2
2023/07/02 00:00:04;;;;;;;1.63;1.53;;;;;;;;;;5072530;28;20929;-70
2023/07/02 00:02:30;;;;;;;1.37;1.37;;;;;;;;;;5052733;28;20507;-70
2023/07/02 00:04:56;;;;;;;2.93;1.30;;;;;;;;;;5052589;28;20952;-69
2023/07/02 00:07:22;;;;;;;1.30;1.30;;;;;;;;;;5063563;28;20437;-69
2023/07/02 00:09:48;;;;;;;1.17;1.17;;;;;;;;;;5057665;28;20442;-70
2023/07/02 00:12:14;;;;;;;1.43;1.43;;;;;;;;;;5052580;28;20430;-69
2023/07/02 00:14:40;;;;;;;1.10;1.10;;;;;;;;;;5056112;28;20472;-69
2023/07/02 00:17:06;;;;;;;2.40;1.20;;;;;;;;;;5070152;28;20427;-69
2023/07/02 00:19:32;;;;;;;1.33;1.33;;;;;;;;;;5059080;28;20841;-69
2023/07/02 00:21:59;;;;;;;1.17;1.17;;;;;;;;;;5059709;28;20436;-69
2023/07/02 00:24:25;;;;;;;0.97;0.97;;;;;;;;;;5054341;28;20457;-70
2023/07/02 00:26:50;;;;;;;1.90;1.40;;;;;;;;;;5053258;28;20804;-70
2023/07/02 00:29:16;;;;;;;7.90;1.53;;;;;;;;;;5058227;28;20443;-69
2023/07/02 00:31:42;;;;;;;1.30;1.30;;;;;;;;;;5064755;28;20979;-69
2023/07/02 00:34:08;;;;;;;2.07;1.90;;;;;;;;;;5063817;28;20477;-70
2023/07/02 00:36:34;;;;;;;1.40;1.40;;;;;;;;;;5053824;28;20477;-69
2023/07/02 00:39:00;;;;;;;1.33;1.33;;;;;;;;;;5062835;28;20804;-70
2023/07/02 00:41:27;;;;;;;1.20;1.20;;;;;;;;;;5056046;28;20458;-70
2023/07/02 00:43:54;;;;;;;1.70;1.70;;;;;;;;;;5052749;28;20411;-69
2023/07/02 00:46:21;;;;;;;2.73;1.70;;;;;;;;;;5060231;28;20445;-69
2023/07/02 00:48:48;;;;;;;2.77;1.30;;;;;;;;;;5058962;28;20942;-70
2023/07/02 00:51:21;;;;;;;3.03;1.90;;;;;;;;;;5070193;28;20905;-70
2023/07/02 00:53:48;;;;;;;3.03;1.57;;;;;;;;;;5072001;28;20429;-70
2023/07/02 00:56:14;;;;;;;9.20;1.43;;;;;;;;;;5069765;28;20480;-69
2023/07/02 00:58:46;;;;;;;1.70;1.70;;;;;;;;;;5069469;28;20855;-70
2023/07/02 01:01:12;;;;;;;3.13;1.70;;;;;;;;;;5069998;28;20433;-70
2023/07/02 01:03:38;;;;;;;1.50;1.40;;;;;;;;;;5040100;28;20920;-69
2023/07/02 01:06:04;;;;;;;1.20;1.20;;;;;;;;;;5071378;28;20446;-70
2023/07/02 01:08:30;;;;;;;1.40;1.40;;;;;;;;;;5062541;28;20434;-70
2023/07/02 01:10:56;;;;;;;1.60;1.60;;;;;;;;;;5056908;28;20941;-70
2023/07/02 01:13:24;;;;;;;2.30;1.90;;;;;;;;;;5065626;28;20907;-70
2023/07/02 01:15:50;;;;;;;3.50;1.40;;;;;;;;;;5064145;28;20484;-70
2023/07/02 01:18:16;;;;;;;1.73;1.63;;;;;;;;;;5064946;28;20460;-70
2023/07/02 01:20:43;;;;;;;2.30;1.80;;;;;;;;;;5055065;28;20480;-70
2023/07/02 01:23:10;;;;;;;1.70;1.70;;;;;;;;;;5067743;28;20470;-70
2023/07/02 01:25:36;;;;;;;2.20;2.17;;;;;;;;;;5054784;28;20509;-70
2023/07/02 01:28:03;;;;;;;2.30;2.20;;;;;;;;;;5067726;28;20957;-70
2023/07/02 01:30:28;;;;;;;2.80;2.10;;;;;;;;;;5071003;28;20470;-69
2023/07/02 01:32:54;;;;;;;1.70;1.70;;;;;;;;;;5055075;28;20468;-70
2023/07/02 01:35:20;;;;;;;1.67;1.67;;;;;;;;;;5054791;28;20539;-70
2023/07/02 01:37:46;;;;;;;2.40;1.67;;;;;;;;;;5073404;28;20503;-70
2023/07/02 01:40:12;;;;;;;2.00;2.00;;;;;;;;;;5073206;28;20888;-70
2023/07/02 01:42:39;;;;;;;2.20;2.20;;;;;;;;;;5039674;28;20911;-70
2023/07/02 01:45:05;;;;;;;2.50;2.27;;;;;;;;;;5055490;28;20568;-70
2023/07/02 01:47:31;;;;;;;1.50;1.50;;;;;;;;;;5074801;28;20540;-70
2023/07/02 01:49:57;;;;;;;2.17;2.07;;;;;;;;;;5073487;28;20485;-69
2023/07/02 01:52:23;;;;;;;1.77;1.63;;;;;;;;;;5072789;28;20540;-69
2023/07/02 01:54:49;;;;;;;1.77;1.77;;;;;;;;;;5057201;28;20476;-70
2023/07/02 01:57:15;;;;;;;5.43;2.00;;;;;;;;;;5062361;28;20452;-70
2023/07/02 01:59:41;;;;;;;3.10;1.80;;;;;;;;;;5060921;28;20539;-70
2023/07/02 02:02:07;;;;;;;2.20;1.50;;;;;;;;;;5056429;28;20542;-69
2023/07/02 02:04:34;;;;;;;1.83;1.73;;;;;;;;;;5054462;28;20422;-70
2023/07/02 02:07:00;;;;;;;1.63;1.63;;;;;;;;;;5054546;28;20447;-69
2023/07/02 02:09:28;;;;;;;2.07;1.97;;;;;;;;;;5054367;28;20808;-69
2023/07/02 02:11:54;;;;;;;2.43;2.23;;;;;;;;;;5054212;28;20438;-70
2023/07/02 02:14:21;;;;;;;1.73;1.73;;;;;;;;;;5067846;28;20422;-70
2023/07/02 02:16:47;;;;;;;2.10;1.90;;;;;;;;;;5067167;28;20539;-69
2023/07/02 02:19:14;;;;;;;1.73;1.73;;;;;;;;;;5054558;28;21361;-70
2023/07/02 02:21:40;;;;;;;4.90;1.30;;;;;;;;;;5054559;28;20491;-70
2023/07/02 02:24:07;;;;;;;2.33;1.70;;;;;;;;;;5058452;28;20444;-70
2023/07/02 02:26:33;;;;;;;2.23;2.10;;;;;;;;;;5061721;28;20421;-69
2023/07/02 02:28:59;;;;;;;1.83;1.73;;;;;;;;;;5071957;28;20782;-69
2023/07/02 02:31:25;;;;;;;1.67;1.67;;;;;;;;;;5055916;28;20442;-70
2023/07/02 02:33:51;;;;;;;2.30;2.30;;;;;;;;;;5073293;28;20441;-70
2023/07/02 02:36:17;;;;;;;2.30;1.80;;;;;;;;;;5073419;28;20839;-70
2023/07/02 02:38:43;;;;;;;2.10;2.10;;;;;;;;;;5068207;28;20503;-70
2023/07/02 02:41:09;;;;;;;2.50;2.30;;;;;;;;;;5072380;28;20941;-69
2023/07/02 02:43:35;;;;;;;4.50;2.40;;;;;;;;;;5057584;28;20850;-70
2023/07/02 02:46:01;;;;;;;2.47;2.20;;;;;;;;;;5054316;28;20525;-70
2023/07/02 02:48:27;;;;;;;2.07;1.97;;;;;;;;;;5071582;28;20469;-70
2023/07/02 02:50:53;;;;;;;7.20;2.33;;;;;;;;;;5071229;28;20453;-69
2023/07/02 02:53:19;;;;;;;4.00;1.80;;;;;;;;;;5073167;28;20413;-69
2023/07/02 02:55:45;;;;;;;2.37;2.27;;;;;;;;;;5072339;28;21007;-70
2023/07/02 02:58:11;;;;;;;1.93;1.93;;;;;;;;;;5056260;28;20902;-70
2023/07/02 03:00:38;;;;;;;3.70;2.30;;;;;;;;;;5036029;28;20454;-70
2023/07/02 03:03:04;;;;;;;2.20;2.10;;;;;;;;;;5056238;28;20441;-69
2023/07/02 03:05:30;;;;;;;2.97;2.07;;;;;;;;;;5071541;28;20437;-70
2023/07/02 03:07:56;;;;;;;8.17;2.50;;;;;;;;;;5072778;28;20405;-70
2023/07/02 03:10:22;;;;;;;2.07;1.97;;;;;;;;;;5072040;28;20429;-69
2023/07/02 03:12:48;;;;;;;2.40;1.90;;;;;;;;;;5073219;28;20425;-69
2023/07/02 03:15:14;;;;;;;3.30;3.00;;;;;;;;;;5059206;28;20505;-70
2023/07/02 03:17:40;;;;;;;2.10;2.00;;;;;;;;;;5056170;28;20829;-70
2023/07/02 03:20:10;;;;;;;2.53;2.43;;;;;;;;;;5060631;28;20480;-70
2023/07/02 03:22:36;;;;;;;9.43;2.80;;;;;;;;;;5048106;28;20483;-70
2023/07/02 03:25:02;;;;;;;2.80;2.80;;;;;;;;;;5062015;28;20421;-70
2023/07/02 03:27:28;;;;;;;2.63;2.43;;;;;;;;;;5059805;28;20415;-70
2023/07/02 03:29:54;;;;;;;2.63;2.53;;;;;;;;;;5053595;28;20452;-69
2023/07/02 03:32:20;;;;;;;2.97;2.77;;;;;;;;;;5054734;28;20429;-70
2023/07/02 03:34:46;;;;;;;2.60;2.50;;;;;;;;;;5053149;28;20464;-69
2023/07/02 03:37:12;;;;;;;9.30;8.13;;;;;;;;;;5057736;28;20508;-69
2023/07/02 03:39:38;;;;;;;3.03;2.93;;;;;;;;;;5060693;28;20516;-70
2023/07/02 03:42:05;;;;;;;2.60;2.60;;;;;;;;;;5062919;28;20449;-69
2023/07/02 03:44:31;;;;;;;3.50;2.47;;;;;;;;;;5055954;28;20462;-70
2023/07/02 03:46:57;;;;;;;4.60;2.77;;;;;;;;;;5063329;28;20559;-70
2023/07/02 03:49:23;;;;;;;2.53;2.43;;;;;;;;;;5072583;28;20473;-69
2023/07/02 03:51:50;;;;;;;6.93;3.00;;;;;;;;;;5067138;28;20445;-70
2023/07/02 03:54:16;;;;;;;6.83;3.23;;;;;;;;;;5052471;28;20528;-70
2023/07/02 03:56:42;;;;;;;3.17;2.97;;;;;;;;;;5068612;28;20500;-70
2023/07/02 03:59:08;;;;;;;3.77;2.87;;;;;;;;;;5072231;28;20433;-70
2023/07/02 04:01:34;;;;;;;3.80;3.63;;;;;;;;;;5060643;28;20533;-69
2023/07/02 04:04:00;;;;;;;6.10;2.90;;;;;;;;;;5046911;28;20490;-70
2023/07/02 04:06:26;;;;;;;5.77;3.13;;;;;;;;;;5062878;28;20482;-69
2023/07/02 04:08:52;;;;;;;8.30;3.80;;;;;;;;;;5058708;28;20425;-69
2023/07/02 04:11:18;;;;;;;3.43;2.87;;;;;;;;;;5053637;28;20452;-70
2023/07/02 04:13:44;;;;;;;3.70;3.50;;;;;;;;;;5052761;28;20422;-70
2023/07/02 04:16:10;;;;;;;5.73;4.60;;;;;;;;;;5060685;28;20491;-70
2023/07/02 04:18:35;;;;;;;5.10;3.43;;;;;;;;;;5072630;28;20782;-69
2023/07/02 04:21:02;;;;;;;4.80;4.40;;;;;;;;;;5048501;28;20523;-69
2023/07/02 04:23:28;;;;;;;4.80;4.40;;;;;;;;;;5054147;28;20448;-70
2023/07/02 04:25:54;;;;;;;7.40;4.10;;;;;;;;;;5053201;28;20943;-69
2023/07/02 04:28:19;;;;;;;4.60;4.17;;;;;;;;;;5072547;28;20767;-70
2023/07/02 04:30:49;;;;;;;4.93;4.40;;;;;;;;;;5071995;28;20498;-69
2023/07/02 04:33:15;;;;;;;6.43;5.00;;;;;;;;;;5072729;28;20428;-70
2023/07/02 04:35:41;;;;;;;4.50;4.30;;;;;;;;;;5075520;28;20908;-69
2023/07/02 04:38:07;;;;;;;3.97;3.70;;;;;;;;;;5067498;28;20427;-70
2023/07/02 04:40:33;;;;;;;4.00;3.80;;;;;;;;;;5038566;28;20495;-70
2023/07/02 04:42:59;;;;;;;4.63;4.33;;;;;;;;;;5038398;28;20932;-70
2023/07/02 04:45:25;;;;;;;5.93;5.40;;;;;;;;;;5063644;28;20429;-69
2023/07/02 04:47:52;;;;;;;6.80;4.80;;;;;;;;;;5071156;28;20498;-70
2023/07/02 04:50:20;;;;;;;5.23;4.70;;;;;;;;;;5076306;28;20520;-69
2023/07/02 04:52:46;;;;;;;15.23;5.90;;;;;;;;;;5071630;28;20432;-70
2023/07/02 04:55:12;;;;;;;7.17;5.57;;;;;;;;;;5062519;28;20469;-69
2023/07/02 04:57:38;;;;;;;9.97;5.80;;;;;;;;;;5068510;28;20226;-70
2023/07/02 05:00:08;;;;;;;9.73;6.17;;;;;;;;;;5075321;28;20437;-70
2023/07/02 05:02:34;;;;;;;9.93;6.50;;;;;;;;;;5058004;28;20427;-69
2023/07/02 05:05:00;;;;;;;9.43;7.43;;;;;;;;;;5055491;28;20425;-70
2023/07/02 05:07:26;;;;;;;10.77;8.20;;;;;;;;;;5074688;28;21028;-70
2023/07/02 05:09:52;;;;;;;7.40;6.90;;;;;;;;;;5075639;28;20410;-69
2023/07/02 05:12:19;;;;;;;10.40;7.30;;;;;;;;;;5057206;28;20437;-70
2023/07/02 05:14:45;;;;;;;14.30;8.00;;;;;;;;;;5075142;28;20521;-70
2023/07/02 05:17:11;;;;;;;14.37;8.70;;;;;;;;;;5071473;28;20515;-69
2023/07/02 05:19:37;;;;;;;11.17;9.80;;;;;;;;;;5065395;28;20913;-69
2023/07/02 05:22:03;;;;;;;15.20;9.17;;;;;;;;;;5075329;28;20433;-69
2023/07/02 05:24:29;;;;;;;12.90;9.20;;;;;;;;;;5075213;28;20492;-70
2023/07/02 05:26:55;;;;;;;13.27;8.30;;;;;;;;;;5075225;28;20985;-69
2023/07/02 05:29:21;;;;;;;13.93;10.47;;;;;;;;;;5056135;28;20828;-69
2023/07/02 05:31:47;;;;;;;12.20;9.70;;;;;;;;;;5055746;28;20461;-69
2023/07/02 05:34:13;;;;;;;19.50;9.93;;;;;;;;;;5057520;28;20425;-70
2023/07/02 05:36:39;;;;;;;15.80;10.40;;;;;;;;;;5074366;28;20972;-69
2023/07/02 05:39:05;;;;;;;14.73;10.97;;;;;;;;;;5073754;28;20524;-70
2023/07/02 05:41:31;;;;;;;13.43;9.80;;;;;;;;;;5073183;28;20850;-69
2023/07/02 05:43:57;;;;;;;13.00;10.80;;;;;;;;;;5062923;28;20450;-70
2023/07/02 05:46:23;;;;;;;17.60;11.00;;;;;;;;;;5057401;28;20858;-70
2023/07/02 05:48:49;;;;;;;18.70;11.40;;;;;;;;;;5064799;28;20481;-70
2023/07/02 05:51:20;;;;;;;22.83;12.57;;;;;;;;;;5088872;28;20428;-70
2023/07/02 05:53:46;;;;;;;15.20;11.30;;;;;;;;;;5091500;28;20433;-70
2023/07/02 05:56:12;;;;;;;19.67;12.83;;;;;;;;;;5076992;28;20496;-70
2023/07/02 05:58:38;;;;;;;24.33;12.33;;;;;;;;;;5083705;28;20469;-70
2023/07/02 06:01:05;;;;;;;16.23;11.40;;;;;;;;;;5084109;28;20963;-70
2023/07/02 06:03:31;;;;;;;24.43;12.77;;;;;;;;;;5078754;28;20543;-70
2023/07/02 06:05:57;;;;;;;21.67;12.83;;;;;;;;;;5078676;28;20591;-70
2023/07/02 06:08:23;;;;;;;24.47;13.93;;;;;;;;;;5092857;28;20440;-70
2023/07/02 06:10:50;;;;;;;19.40;12.93;;;;;;;;;;5088816;28;20201;-70
2023/07/02 06:13:16;;;;;;;24.50;13.60;;;;;;;;;;5093362;28;20428;-70
2023/07/02 06:15:42;;;;;;;19.23;13.67;;;;;;;;;;5094541;28;20480;-69
2023/07/02 06:18:08;;;;;;;29.97;14.30;;;;;;;;;;5093933;28;20404;-70
2023/07/02 06:20:34;;;;;;;23.73;14.63;;;;;;;;;;5080650;28;20463;-69
2023/07/02 06:23:00;;;;;;;30.00;14.57;;;;;;;;;;5077854;28;20413;-70
2023/07/02 06:25:26;;;;;;;25.60;15.50;;;;;;;;;;5075749;28;20463;-70
2023/07/02 06:27:54;;;;;;;20.37;14.17;;;;;;;;;;5088934;28;20438;-70
2023/07/02 06:30:20;;;;;;;20.97;13.40;;;;;;;;;;5076128;28;20459;-69
2023/07/02 06:32:46;;;;;;;24.67;15.90;;;;;;;;;;5075823;28;20444;-70
2023/07/02 06:35:12;;;;;;;21.20;14.43;;;;;;;;;;5088715;28;21681;-70
2023/07/02 06:37:38;;;;;;;18.63;14.30;;;;;;;;;;5090880;28;20420;-71
2023/07/02 06:40:05;;;;;;;19.50;13.33;;;;;;;;;;5089595;28;20908;-70
2023/07/02 06:42:31;;;;;;;27.07;15.40;;;;;;;;;;5090505;28;20515;-70
2023/07/02 06:44:57;;;;;;;15.30;11.40;;;;;;;;;;5087228;28;20875;-70
2023/07/02 06:47:23;;;;;;;25.73;15.13;;;;;;;;;;5080119;28;20445;-70
2023/07/02 06:49:49;;;;;;;28.43;16.10;;;;;;;;;;5067903;28;20472;-70
2023/07/02 06:52:15;;;;;;;26.93;15.20;;;;;;;;;;5068265;28;20433;-71
2023/07/02 06:54:41;;;;;;;32.07;15.60;;;;;;;;;;5073088;28;20413;-70
2023/07/02 06:57:07;;;;;;;25.50;16.40;;;;;;;;;;5066520;28;20441;-70
2023/07/02 06:59:33;;;;;;;27.57;15.40;;;;;;;;;;5062281;28;20520;-69
2023/07/02 07:01:59;;;;;;;25.80;16.20;;;;;;;;;;5053226;28;20423;-70
2023/07/02 07:04:24;;;;;;;26.80;15.87;;;;;;;;;;5054333;28;20926;-70
2023/07/02 07:06:50;;;;;;;30.13;17.10;;;;;;;;;;5063292;28;21027;-71
2023/07/02 07:09:17;;;;;;;30.80;18.40;;;;;;;;;;5073001;28;20421;-70
2023/07/02 07:11:44;;;;;;;26.97;15.30;;;;;;;;;;5064351;28;20492;-70
2023/07/02 07:14:09;;;;;;;29.33;17.87;;;;;;;;;;5054578;28;20466;-69
2023/07/02 07:16:35;;;;;;;24.13;15.93;;;;;;;;;;5070199;28;21066;-69
2023/07/02 07:19:02;;;;;;;24.90;15.67;;;;;;;;;;5063701;28;20453;-69
2023/07/02 07:21:28;;;;;;;28.03;18.13;;;;;;;;;;5064439;28;20445;-69
2023/07/02 07:23:54;;;;;;;27.00;15.93;;;;;;;;;;5053892;28;20446;-69
2023/07/02 07:26:20;;;;;;;37.93;17.93;;;;;;;;;;5065763;28;20183;-70
2023/07/02 07:28:45;;;;;;;30.23;16.60;;;;;;;;;;5072829;28;20909;-69
2023/07/02 07:31:12;;;;;;;23.93;14.33;;;;;;;;;;5072784;28;20418;-70
2023/07/02 07:33:38;;;;;;;21.80;14.13;;;;;;;;;;5066409;28;20941;-69
2023/07/02 07:36:04;;;;;;;31.87;16.67;;;;;;;;;;5052549;28;20484;-69
2023/07/02 07:38:30;;;;;;;25.13;15.23;;;;;;;;;;5062564;28;20433;-70
2023/07/02 07:40:56;;;;;;;32.13;17.37;;;;;;;;;;5071322;28;20438;-70
2023/07/02 07:43:22;;;;;;;34.53;18.03;;;;;;;;;;5068493;28;20780;-70
2023/07/02 07:45:48;;;;;;;30.87;17.17;;;;;;;;;;5052253;28;20918;-70
2023/07/02 07:48:15;;;;;;;35.50;17.73;;;;;;;;;;5053640;28;20822;-70
2023/07/02 07:50:41;;;;;;;24.90;15.90;;;;;;;;;;5041023;28;20815;-71
2023/07/02 07:53:07;;;;;;;32.10;17.90;;;;;;;;;;5072152;28;20410;-71
2023/07/02 07:55:33;;;;;;;32.07;18.60;;;;;;;;;;5066034;28;21007;-70
2023/07/02 07:57:59;;;;;;;35.17;18.70;;;;;;;;;;5064201;28;20421;-70
2023/07/02 08:00:26;;;;;;;38.63;20.10;;;;;;;;;;5066441;28;20436;-70
2023/07/02 08:02:55;;;;;;;33.10;19.40;;;;;;;;;;5056567;28;20419;-70
2023/07/02 08:05:21;;;;;;;32.17;19.07;;;;;;;;;;5055145;28;20457;-71
2023/07/02 08:07:47;;;;;;;31.03;18.23;;;;;;;;;;5047996;28;21048;-70
2023/07/02 08:10:13;;;;;;;27.53;18.27;;;;;;;;;;5034822;28;20424;-71
2023/07/02 08:12:39;;;;;;;33.27;19.77;;;;;;;;;;5058259;28;20425;-70
2023/07/02 08:15:05;;;;;;;37.07;18.03;;;;;;;;;;5072253;28;21034;-71
2023/07/02 08:17:31;;;;;;;39.20;20.20;;;;;;;;;;5069364;28;20455;-70
2023/07/02 08:19:57;;;;;;;28.00;18.13;;;;;;;;;;5072009;28;20845;-70
2023/07/02 08:22:23;;;;;;;27.40;17.83;;;;;;;;;;5058113;28;20422;-70
2023/07/02 08:24:49;;;;;;;29.70;19.23;;;;;;;;;;5039081;28;20998;-70
2023/07/02 08:27:19;;;;;;;33.00;20.07;;;;;;;;;;5055593;28;20435;-71
2023/07/02 08:29:45;;;;;;;25.47;16.20;;;;;;;;;;5066528;28;20484;-69
2023/07/02 08:32:11;;;;;;;31.73;18.00;;;;;;;;;;5070041;28;20421;-69
2023/07/02 08:34:37;;;;;;;30.50;18.00;;;;;;;;;;5071972;28;20478;-70
2023/07/02 08:37:03;;;;;;;27.27;17.53;;;;;;;;;;5069553;28;20465;-70
2023/07/02 08:39:29;;;;;;;26.10;17.30;;;;;;;;;;5071570;28;20409;-70
2023/07/02 08:41:55;;;;;;;33.27;18.70;;;;;;;;;;5069975;28;20429;-70
2023/07/02 08:44:21;;;;;;;29.63;19.40;;;;;;;;;;5071668;28;20429;-70
2023/07/02 08:46:50;;;;;;;30.23;18.40;;;;;;;;;;5070895;28;20413;-70
2023/07/02 08:49:17;;;;;;;30.97;19.10;;;;;;;;;;5061813;28;20474;-70
2023/07/02 08:51:45;;;;;;;32.93;18.50;;;;;;;;;;5052968;28;20909;-70
2023/07/02 08:54:11;;;;;;;37.20;19.77;;;;;;;;;;5068150;28;20525;-70
2023/07/02 08:56:37;;;;;;;32.97;17.80;;;;;;;;;;5062059;28;20921;-70
2023/07/02 08:59:03;;;;;;;25.27;18.37;;;;;;;;;;5057928;28;20461;-69
2023/07/02 09:01:28;;;;;;;41.33;17.83;;;;;;;;;;5057491;28;20424;-70
2023/07/02 09:04:02;;;;;;;25.87;16.30;;;;;;;;;;5071756;28;20180;-71
2023/07/02 09:06:28;;;;;;;26.97;18.10;;;;;;;;;;5051225;28;20446;-70
2023/07/02 09:09:03;;;;;;;29.90;17.30;;;;;;;;;;5059103;28;20470;-70
2023/07/02 09:11:29;;;;;;;26.60;17.13;;;;;;;;;;5062488;28;20424;-70
2023/07/02 09:14:00;;;;;;;31.27;20.17;;;;;;;;;;5062122;28;20430;-69
2023/07/02 09:16:31;;;;;;;31.67;18.70;;;;;;;;;;5070885;28;20830;-70
2023/07/02 09:19:01;;;;;;;30.53;19.67;;;;;;;;;;5066884;28;20945;-69
2023/07/02 09:21:28;;;;;;;26.93;18.67;;;;;;;;;;5054377;28;20417;-69
2023/07/02 09:23:54;;;;;;;35.30;19.70;;;;;;;;;;5068009;28;20444;-69
2023/07/02 09:26:21;;;;;;;27.90;17.70;;;;;;;;;;5073105;28;20504;-69
2023/07/02 09:28:47;;;;;;;27.47;16.43;;;;;;;;;;5074667;28;20418;-70
2023/07/02 09:31:13;;;;;;;23.97;15.47;;;;;;;;;;5058916;28;20560;-70
2023/07/02 09:33:39;;;;;;;32.37;17.87;;;;;;;;;;5060744;28;20452;-70
2023/07/02 09:36:05;;;;;;;27.17;17.83;;;;;;;;;;5074139;28;20488;-69
2023/07/02 09:38:31;;;;;;;27.70;17.27;;;;;;;;;;5064979;28;20952;-70
2023/07/02 09:40:58;;;;;;;30.13;18.40;;;;;;;;;;5072959;28;20439;-69
2023/07/02 09:43:24;;;;;;;39.43;19.20;;;;;;;;;;5051085;28;20864;-69
2023/07/02 09:45:51;;;;;;;34.60;17.77;;;;;;;;;;5056245;28;20480;-69
2023/07/02 09:48:18;;;;;;;32.53;18.20;;;;;;;;;;5050620;28;20480;-69
2023/07/02 09:50:44;;;;;;;25.00;17.17;;;;;;;;;;5082953;28;20433;-71
2023/07/02 09:53:11;;;;;;;36.57;19.87;;;;;;;;;;5094186;28;20424;-70
2023/07/02 09:55:42;;;;;;;31.83;19.83;;;;;;;;;;5080125;28;20550;-71
2023/07/02 09:58:08;;;;;;;31.60;19.57;;;;;;;;;;5092259;28;20428;-70
2023/07/02 10:00:34;;;;;;;29.00;18.70;;;;;;;;;;5081558;28;20442;-71
2023/07/02 10:03:00;;;;;;;38.00;20.17;;;;;;;;;;5087023;28;20857;-71
2023/07/02 10:05:30;;;;;;;32.50;19.13;;;;;;;;;;5084530;28;20433;-70
2023/07/02 10:07:57;;;;;;;33.30;18.27;;;;;;;;;;5091074;28;20465;-70
2023/07/02 10:10:29;;;;;;;37.30;20.80;;;;;;;;;;5078093;28;20437;-69
2023/07/02 10:12:56;;;;;;;40.77;25.77;;;;;;;;;;5073890;28;20509;-70
2023/07/02 10:15:26;;;;;;;33.30;21.47;;;;;;;;;;5077797;28;20460;-69
2023/07/02 10:17:56;;;;;;;31.83;20.93;;;;;;;;;;5074694;28;20808;-70
2023/07/02 10:20:33;;;;;;;36.17;20.00;;;;;;;;;;5073894;28;20425;-70
2023/07/02 10:22:59;;;;;;;30.10;19.17;;;;;;;;;;5084375;28;20424;-71
2023/07/02 10:25:26;;;;;;;35.43;19.97;;;;;;;;;;5077526;28;20429;-70
2023/07/02 10:27:52;;;;;;;38.23;20.97;;;;;;;;;;5076169;28;20421;-70
2023/07/02 10:30:18;;;;;;;31.67;20.07;;;;;;;;;;5070989;28;20456;-70
2023/07/02 10:32:44;;;;;;;34.83;19.43;;;;;;;;;;5072290;28;20453;-70
2023/07/02 10:35:16;;;;;;;32.73;18.60;;;;;;;;;;5078982;28;20562;-70
2023/07/02 10:37:43;;;;;;;35.87;19.07;;;;;;;;;;5086129;28;20802;-70
2023/07/02 10:40:09;;;;;;;31.37;18.77;;;;;;;;;;5081165;28;20921;-70
2023/07/02 10:42:48;;;;;;;28.20;18.80;;;;;;;;;;5073702;28;20418;-70
2023/07/02 10:45:14;;;;;;;32.57;20.17;;;;;;;;;;5093232;28;20416;-70
2023/07/02 10:47:41;;;;;;;36.33;20.87;;;;;;;;;;5090291;28;20493;-70
2023/07/02 10:50:16;;;;;;;25.00;18.13;;;;;;;;;;5071190;28;20463;-70
2023/07/02 10:52:42;;;;;;;28.70;18.10;;;;;;;;;;5067477;28;20437;-70
2023/07/02 10:55:09;;;;;;;38.90;19.60;;;;;;;;;;5057378;28;20462;-70
2023/07/02 10:57:35;;;;;;;32.73;18.10;;;;;;;;;;5060215;28;20508;-70
2023/07/02 11:00:07;;;;;;;33.00;18.47;;;;;;;;;;5068767;28;20441;-70
2023/07/02 11:02:39;;;;;;;32.80;18.13;;;;;;;;;;5070094;28;20575;-70
2023/07/02 11:05:06;;;;;;;33.73;17.67;;;;;;;;;;5071043;28;20532;-70
2023/07/02 11:07:33;;;;;;;27.63;17.40;;;;;;;;;;5071896;28;20441;-72
2023/07/02 11:09:59;;;;;;;26.83;17.67;;;;;;;;;;5068598;28;20435;-70
2023/07/02 11:12:32;;;;;;;25.00;16.23;;;;;;;;;;5054252;28;20449;-71
2023/07/02 11:15:10;;;;;;;21.47;16.27;;;;;;;;;;5068400;28;20469;-70
2023/07/02 11:17:36;;;;;;;26.23;16.13;;;;;;;;;;5065123;28;20526;-70
2023/07/02 11:20:05;;;;;;;30.43;14.57;;;;;;;;;;5068064;28;20458;-70
2023/07/02 11:22:34;;;;;;;28.83;16.20;;;;;;;;;;5054732;28;20524;-70
2023/07/02 11:25:12;;;;;;;23.13;15.03;;;;;;;;;;5071343;28;20432;-70
2023/07/02 11:27:38;;;;;;;37.93;16.33;;;;;;;;;;5072618;28;20807;-71
2023/07/02 11:30:04;;;;;;;24.30;16.57;;;;;;;;;;5057472;28;20514;-71
2023/07/02 11:32:30;;;;;;;21.50;15.50;;;;;;;;;;5063331;28;20445;-71
2023/07/02 11:34:56;;;;;;;23.23;16.27;;;;;;;;;;5067117;28;20484;-69
2023/07/02 11:37:22;;;;;;;35.50;17.47;;;;;;;;;;5052111;28;20484;-70
2023/07/02 11:39:48;;;;;;;31.33;15.90;;;;;;;;;;5040381;28;20848;-70
2023/07/02 11:42:14;;;;;;;24.90;14.80;;;;;;;;;;5058744;28;20487;-70
2023/07/02 11:44:41;;;;;;;34.70;16.57;;;;;;;;;;5063725;28;20449;-69
2023/07/02 11:47:07;;;;;;;31.93;16.63;;;;;;;;;;5071365;28;20413;-70
2023/07/02 11:49:33;;;;;;;30.40;16.87;;;;;;;;;;5059180;28;20490;-70
2023/07/02 11:51:59;;;;;;;29.43;17.00;;;;;;;;;;5063221;28;20516;-70
2023/07/02 11:54:25;;;;;;;22.50;15.27;;;;;;;;;;5059878;28;20994;-71
2023/07/02 11:56:51;;;;;;;19.17;13.93;;;;;;;;;;5059147;28;20838;-70
2023/07/02 11:59:17;;;;;;;23.30;15.10;;;;;;;;;;5063107;28;20532;-70
2023/07/02 12:01:43;;;;;;;26.63;15.30;;;;;;;;;;5071649;28;20486;-70
2023/07/02 12:04:11;;;;;;;26.30;17.03;;;;;;;;;;5044216;28;20430;-69
2023/07/02 12:06:37;;;;;;;20.00;14.07;;;;;;;;;;5071156;28;20532;-70
2023/07/02 12:09:04;;;;;;;26.53;15.50;;;;;;;;;;5064821;28;20433;-70
2023/07/02 12:11:30;;;;;;;20.87;13.80;;;;;;;;;;5068224;28;20768;-73
2023/07/02 12:13:56;;;;;;;29.07;15.30;;;;;;;;;;5063719;28;20437;-70
2023/07/02 12:16:22;;;;;;;28.77;16.00;;;;;;;;;;5059967;28;20565;-70
2023/07/02 12:18:48;;;;;;;20.77;14.33;;;;;;;;;;5062347;28;20445;-71
2023/07/02 12:21:14;;;;;;;26.00;14.00;;;;;;;;;;5052666;28;20450;-70
2023/07/02 12:23:40;;;;;;;20.77;14.10;;;;;;;;;;5052754;28;20465;-70
2023/07/02 12:26:05;;;;;;;24.03;15.50;;;;;;;;;;5066075;28;20922;-70
2023/07/02 12:28:31;;;;;;;24.83;14.17;;;;;;;;;;5058581;28;20886;-70
2023/07/02 12:30:57;;;;;;;19.57;14.27;;;;;;;;;;5054851;28;20433;-70
2023/07/02 12:33:24;;;;;;;17.07;14.03;;;;;;;;;;5034907;28;20525;-70
2023/07/02 12:35:50;;;;;;;24.93;14.47;;;;;;;;;;5051501;28;20577;-70
2023/07/02 12:38:16;;;;;;;22.27;14.77;;;;;;;;;;5056818;28;20520;-71
2023/07/02 12:40:41;;;;;;;23.03;14.60;;;;;;;;;;5066495;28;20195;-70
2023/07/02 12:43:07;;;;;;;20.97;13.63;;;;;;;;;;5068659;28;20426;-70
2023/07/02 12:45:33;;;;;;;17.37;12.40;;;;;;;;;;5059015;28;20477;-69
2023/07/02 12:47:59;;;;;;;23.23;13.20;;;;;;;;;;5067680;28;20514;-69
2023/07/02 12:50:25;;;;;;;19.60;13.50;;;;;;;;;;5061507;28;20828;-70
2023/07/02 12:52:51;;;;;;;18.60;13.33;;;;;;;;;;5058235;28;20425;-69
2023/07/02 12:55:17;;;;;;;20.07;13.73;;;;;;;;;;5063577;28;20497;-70
2023/07/02 12:57:43;;;;;;;21.10;14.40;;;;;;;;;;5067709;28;20833;-70
2023/07/02 13:00:09;;;;;;;18.93;12.30;;;;;;;;;;5064357;28;20483;-70
2023/07/02 13:02:35;;;;;;;24.67;13.97;;;;;;;;;;5062021;28;20444;-70
2023/07/02 13:05:01;;;;;;;19.17;12.80;;;;;;;;;;5070722;28;20437;-70
2023/07/02 13:07:30;;;;;;;17.00;12.93;;;;;;;;;;5065228;28;20473;-70
2023/07/02 13:09:56;;;;;;;20.40;13.43;;;;;;;;;;5069323;28;20437;-70
2023/07/02 13:12:22;;;;;;;21.20;12.53;;;;;;;;;;5057581;28;20483;-70
2023/07/02 13:14:49;;;;;;;18.47;14.30;;;;;;;;;;5056037;28;20527;-70
2023/07/02 13:17:15;;;;;;;22.77;14.60;;;;;;;;;;5068681;28;20510;-70
2023/07/02 13:19:41;;;;;;;19.47;15.30;;;;;;;;;;5063101;28;20437;-70
2023/07/02 13:22:07;;;;;;;20.80;14.73;;;;;;;;;;5069629;28;20445;-69
2023/07/02 13:24:36;;;;;;;28.00;15.07;;;;;;;;;;5067775;28;20425;-70
2023/07/02 13:27:05;;;;;;;22.93;13.90;;;;;;;;;;5072208;28;20466;-70
2023/07/02 13:29:31;;;;;;;26.43;16.53;;;;;;;;;;5052130;28;20930;-70
2023/07/02 13:31:57;;;;;;;21.80;14.87;;;;;;;;;;5069036;28;20845;-70
2023/07/02 13:34:23;;;;;;;22.13;16.30;;;;;;;;;;5064832;28;20437;-69
2023/07/02 13:36:49;;;;;;;24.50;14.03;;;;;;;;;;5057918;28;20476;-70
2023/07/02 13:39:15;;;;;;;27.17;17.13;;;;;;;;;;5072185;28;20567;-70
2023/07/02 13:41:41;;;;;;;24.20;15.00;;;;;;;;;;5055537;28;20426;-70
2023/07/02 13:44:07;;;;;;;19.20;14.00;;;;;;;;;;5070562;28;20951;-70
2023/07/02 13:46:33;;;;;;;25.13;16.17;;;;;;;;;;5065074;28;20580;-69
2023/07/02 13:48:59;;;;;;;25.00;15.80;;;;;;;;;;5045627;28;20485;-69
2023/07/02 13:51:24;;;;;;;24.00;16.20;;;;;;;;;;5059359;28;20946;-69
2023/07/02 13:53:50;;;;;;;19.83;14.10;;;;;;;;;;5068785;28;20777;-69
2023/07/02 13:56:16;;;;;;;25.70;15.83;;;;;;;;;;5073868;28;20477;-69
2023/07/02 13:58:47;;;;;;;23.00;15.70;;;;;;;;;;5073341;28;20433;-70
2023/07/02 14:01:13;;;;;;;26.27;17.37;;;;;;;;;;5062265;28;20709;-69
2023/07/02 14:03:39;;;;;;;24.70;15.70;;;;;;;;;;5074578;28;20501;-70
2023/07/02 14:06:05;;;;;;;25.30;14.90;;;;;;;;;;5065403;28;20438;-70
2023/07/02 14:08:31;;;;;;;26.93;15.17;;;;;;;;;;5065184;28;20598;-69
2023/07/02 14:10:57;;;;;;;19.80;14.33;;;;;;;;;;5054349;28;20419;-70
2023/07/02 14:13:23;;;;;;;20.50;15.03;;;;;;;;;;5062409;28;20493;-70
2023/07/02 14:15:50;;;;;;;22.93;14.80;;;;;;;;;;5021122;28;20486;-70
2023/07/02 14:18:16;;;;;;;20.00;14.03;;;;;;;;;;4921221;28;20468;-70
2023/07/02 14:20:42;;;;;;;24.33;13.63;;;;;;;;;;5014291;28;20440;-69